Terminal Aerodrome Forecast
Issued by NWS Mt. Holly, NJ

Home | Current Version | Previous Version | Text Only | Print | Product List | Glossary On
Versions: 1 2 3 4 5 6 7 8 9 10 11 12 13 14 15 16 17 18 19 20
000
FTUS41 KPHI 282135 AAC
TAFACY
TAF AMD
KACY 282135Z 2822/2918 19009KT 3SM SHRA VCTS BKN035CB OVC090
     FM282230 18008KT P6SM VCSH SCT040 OVC100
     FM282300 18006KT P6SM SCT045
     FM290100 20004KT P6SM SCT250
      TEMPO 2909/2912 5SM HZ
     FM291300 21006KT P6SM SCT045=

USA.gov is the U.S. government's official web portal to all federal, state and local government web resources and services.